Kaiser — NHJK — position and weather

sailwx.info

Track history (hours):
 
Tides and Currents Weather Stations Pressure Air Temp Water Temp Dewpoint Dewpoint Depression Visibility Wind Speed Wind Dir Waves Ship Positions

Kaiser

Last reported at 2017-Oct-19 01:34 UTC. Time now 2017-Oct-19 16:25 UTC.
Position N 32°36' W 117°24'.

; draft 8.5 m.

Type: Military. MMSI: 303849000.

Date/timePositionNaut miles runAvg speedWind from/ knotsBaromVisibWave heightAir tempDewpointWater temp
2017-Oct-19 01:34N 32°36' W 117°24'212.1
2017-Oct-19 01:21N 32°36' W 117°21'512.7
2017-Oct-19 00:58N 32°36' W 117°15'6 0.6
2017-Oct-18 14:49N 32°42' W 117°14'2 0.1
2017-Oct-17 16:47N 32°42' W 117°11'0 1.1
2017-Oct-17 16:28N 32°43' W 117°11'3 5.8
2017-Oct-17 16:00N 32°41' W 117°14'5 9.7
2017-Oct-17 15:30N 32°37' W 117°14'613.1
2017-Oct-17 15:01N 32°36' W 117°22'714.0
2017-Oct-17 14:30N 32°36' W 117°30'510.8
2017-Oct-17 14:01N 32°36' W 117°36'5 9.4
2017-Oct-17 13:30N 32°36' W 117°42'35 0.9
2017-Oct-15 22:50N 32°35' W 118°23'412.0
2017-Oct-15 22:30N 32°35' W 118°28'611.8
2017-Oct-15 22:00N 32°36' W 118°35'611.8
2017-Oct-15 21:30N 32°36' W 118°42'612.2
2017-Oct-15 20:58N 32°36' W 118°49'510.8
2017-Oct-15 20:30N 32°36' W 118°55'1 2.9
2017-Oct-15 20:00N 32°36' W 118°57'4611.9
2017-Oct-15 16:06N 32°36' W 118°02'113.1
2017-Oct-15 16:00N 32°36' W 118°00'713.1
2017-Oct-15 15:30N 32°36' W 117°53'713.2
2017-Oct-15 15:00N 32°36' W 117°45'  
Track history (hours):
 
Tides and Currents Weather Stations Pressure Air Temp Water Temp Dewpoint Dewpoint Depression Visibility Wind Speed Wind Dir Waves Ship Positions

Kaiser

Last reported at 2017-Oct-19 01:34 UTC. Time now 2017-Oct-19 16:25 UTC.
Position N 32°36' W 117°24'.

; draft 8.5 m.

Type: Military. MMSI: 303849000.

Date/timePositionNaut miles runAvg speedWind from/ knotsBaromVisibWave heightAir tempDewpointWater temp
2017-Oct-19 01:34N 32°36' W 117°24'212.1
2017-Oct-19 01:21N 32°36' W 117°21'512.7
2017-Oct-19 00:58N 32°36' W 117°15'6 0.6
2017-Oct-18 14:49N 32°42' W 117°14'2 0.1
2017-Oct-17 16:47N 32°42' W 117°11'0 1.1
2017-Oct-17 16:28N 32°43' W 117°11'3 5.8
2017-Oct-17 16:00N 32°41' W 117°14'5 9.7
2017-Oct-17 15:30N 32°37' W 117°14'613.1
2017-Oct-17 15:01N 32°36' W 117°22'714.0
2017-Oct-17 14:30N 32°36' W 117°30'510.8
2017-Oct-17 14:01N 32°36' W 117°36'5 9.4
2017-Oct-17 13:30N 32°36' W 117°42'35 0.9
2017-Oct-15 22:50N 32°35' W 118°23'412.0
2017-Oct-15 22:30N 32°35' W 118°28'611.8
2017-Oct-15 22:00N 32°36' W 118°35'611.8
2017-Oct-15 21:30N 32°36' W 118°42'612.2
2017-Oct-15 20:58N 32°36' W 118°49'510.8
2017-Oct-15 20:30N 32°36' W 118°55'1 2.9
2017-Oct-15 20:00N 32°36' W 118°57'4611.9
2017-Oct-15 16:06N 32°36' W 118°02'113.1
2017-Oct-15 16:00N 32°36' W 118°00'713.1
2017-Oct-15 15:30N 32°36' W 117°53'713.2
2017-Oct-15 15:00N 32°36' W 117°45'  

Dump ship's entire track history